sensor_id;sensor_type;location;lat;lon;timestamp;P1;durP1;ratioP1;P2;durP2;ratioP2
19776;SDS011;10047;42.490;26.012;2022-10-16T00:00:35;12.48;;;7.15;;
19776;SDS011;10047;42.490;26.012;2022-10-16T00:03:02;12.00;;;7.25;;
19776;SDS011;10047;42.490;26.012;2022-10-16T00:05:29;9.98;;;7.50;;
19776;SDS011;10047;42.490;26.012;2022-10-16T00:07:55;11.48;;;7.30;;
19776;SDS011;10047;42.490;26.012;2022-10-16T00:10:20;11.05;;;7.43;;
19776;SDS011;10047;42.490;26.012;2022-10-16T00:12:46;10.15;;;7.45;;
19776;SDS011;10047;42.490;26.012;2022-10-16T00:15:11;11.82;;;7.55;;
19776;SDS011;10047;42.490;26.012;2022-10-16T00:17:37;11.90;;;7.75;;
19776;SDS011;10047;42.490;26.012;2022-10-16T00:20:02;15.07;;;7.60;;
19776;SDS011;10047;42.490;26.012;2022-10-16T00:22:28;11.57;;;7.88;;
19776;SDS011;10047;42.490;26.012;2022-10-16T00:24:54;10.38;;;7.60;;
19776;SDS011;10047;42.490;26.012;2022-10-16T00:27:19;12.15;;;7.10;;
19776;SDS011;10047;42.490;26.012;2022-10-16T00:29:45;12.40;;;7.22;;
19776;SDS011;10047;42.490;26.012;2022-10-16T00:32:14;10.18;;;7.00;;
19776;SDS011;10047;42.490;26.012;2022-10-16T00:34:39;9.77;;;6.90;;
19776;SDS011;10047;42.490;26.012;2022-10-16T00:37:05;9.82;;;6.93;;
19776;SDS011;10047;42.490;26.012;2022-10-16T00:39:30;9.50;;;7.03;;
19776;SDS011;10047;42.490;26.012;2022-10-16T00:41:56;10.93;;;7.03;;
19776;SDS011;10047;42.490;26.012;2022-10-16T00:47:26;7.07;;;6.15;;
19776;SDS011;10047;42.490;26.012;2022-10-16T00:50:00;10.85;;;6.82;;
19776;SDS011;10047;42.490;26.012;2022-10-16T00:52:33;9.27;;;7.10;;
19776;SDS011;10047;42.490;26.012;2022-10-16T00:54:59;8.75;;;6.45;;
19776;SDS011;10047;42.490;26.012;2022-10-16T00:57:27;11.30;;;6.95;;
19776;SDS011;10047;42.490;26.012;2022-10-16T00:59:53;10.77;;;7.63;;
19776;SDS011;10047;42.490;26.012;2022-10-16T01:02:18;8.85;;;7.30;;
19776;SDS011;10047;42.490;26.012;2022-10-16T01:04:46;11.90;;;7.40;;
19776;SDS011;10047;42.490;26.012;2022-10-16T01:10:30;11.25;;;6.80;;
19776;SDS011;10047;42.490;26.012;2022-10-16T01:18:07;11.93;;;7.93;;
19776;SDS011;10047;42.490;26.012;2022-10-16T01:28:57;13.85;;;7.63;;
19776;SDS011;10047;42.490;26.012;2022-10-16T01:31:31;10.35;;;7.35;;
19776;SDS011;10047;42.490;26.012;2022-10-16T01:34:20;9.63;;;7.13;;
19776;SDS011;10047;42.490;26.012;2022-10-16T01:36:57;9.25;;;7.00;;
19776;SDS011;10047;42.490;26.012;2022-10-16T01:39:30;8.50;;;6.35;;
19776;SDS011;10047;42.490;26.012;2022-10-16T01:42:04;10.80;;;7.00;;
19776;SDS011;10047;42.490;26.012;2022-10-16T01:44:37;10.27;;;6.32;;
19776;SDS011;10047;42.490;26.012;2022-10-16T01:47:04;11.65;;;6.85;;
19776;SDS011;10047;42.490;26.012;2022-10-16T01:49:33;8.38;;;5.78;;
19776;SDS011;10047;42.490;26.012;2022-10-16T01:52:04;7.45;;;5.47;;
19776;SDS011;10047;42.490;26.012;2022-10-16T01:54:33;8.07;;;6.22;;
19776;SDS011;10047;42.490;26.012;2022-10-16T01:57:02;8.52;;;6.00;;
19776;SDS011;10047;42.490;26.012;2022-10-16T01:59:31;9.85;;;6.00;;
19776;SDS011;10047;42.490;26.012;2022-10-16T02:02:01;9.30;;;6.07;;
19776;SDS011;10047;42.490;26.012;2022-10-16T02:04:32;9.77;;;6.10;;
19776;SDS011;10047;42.490;26.012;2022-10-16T02:07:08;11.13;;;6.13;;
19776;SDS011;10047;42.490;26.012;2022-10-16T02:09:35;9.07;;;6.22;;
19776;SDS011;10047;42.490;26.012;2022-10-16T02:12:13;11.02;;;6.22;;
19776;SDS011;10047;42.490;26.012;2022-10-16T02:14:55;6.95;;;5.85;;
19776;SDS011;10047;42.490;26.012;2022-10-16T02:17:20;7.65;;;6.07;;
19776;SDS011;10047;42.490;26.012;2022-10-16T02:19:47;9.65;;;6.30;;
19776;SDS011;10047;42.490;26.012;2022-10-16T02:22:21;8.13;;;6.10;;
19776;SDS011;10047;42.490;26.012;2022-10-16T02:25:07;8.40;;;6.32;;
19776;SDS011;10047;42.490;26.012;2022-10-16T02:30:38;8.23;;;6.32;;
19776;SDS011;10047;42.490;26.012;2022-10-16T02:33:08;12.40;;;6.07;;
19776;SDS011;10047;42.490;26.012;2022-10-16T02:35:38;7.57;;;5.88;;
19776;SDS011;10047;42.490;26.012;2022-10-16T02:38:06;9.60;;;6.28;;
19776;SDS011;10047;42.490;26.012;2022-10-16T02:40:33;7.50;;;6.15;;
19776;SDS011;10047;42.490;26.012;2022-10-16T02:42:59;7.40;;;6.20;;
19776;SDS011;10047;42.490;26.012;2022-10-16T02:45:24;7.95;;;6.30;;
19776;SDS011;10047;42.490;26.012;2022-10-16T02:47:50;9.52;;;7.10;;
19776;SDS011;10047;42.490;26.012;2022-10-16T02:50:16;10.38;;;6.22;;
19776;SDS011;10047;42.490;26.012;2022-10-16T02:52:41;9.05;;;6.72;;
19776;SDS011;10047;42.490;26.012;2022-10-16T02:55:07;7.03;;;6.07;;
19776;SDS011;10047;42.490;26.012;2022-10-16T02:57:33;10.88;;;6.20;;
19776;SDS011;10047;42.490;26.012;2022-10-16T02:59:58;10.38;;;6.43;;
19776;SDS011;10047;42.490;26.012;2022-10-16T03:02:23;7.60;;;6.13;;
19776;SDS011;10047;42.490;26.012;2022-10-16T03:04:49;8.73;;;6.32;;
19776;SDS011;10047;42.490;26.012;2022-10-16T03:07:15;9.13;;;6.68;;
19776;SDS011;10047;42.490;26.012;2022-10-16T03:09:41;11.57;;;6.90;;
19776;SDS011;10047;42.490;26.012;2022-10-16T03:12:06;11.85;;;6.88;;
19776;SDS011;10047;42.490;26.012;2022-10-16T03:14:32;12.05;;;6.70;;
19776;SDS011;10047;42.490;26.012;2022-10-16T03:16:57;11.02;;;6.43;;
19776;SDS011;10047;42.490;26.012;2022-10-16T03:19:23;9.50;;;7.00;;
19776;SDS011;10047;42.490;26.012;2022-10-16T03:21:49;9.45;;;6.55;;
19776;SDS011;10047;42.490;26.012;2022-10-16T03:24:14;9.15;;;7.47;;
19776;SDS011;10047;42.490;26.012;2022-10-16T03:26:40;15.98;;;8.02;;
19776;SDS011;10047;42.490;26.012;2022-10-16T03:29:05;16.67;;;7.53;;
19776;SDS011;10047;42.490;26.012;2022-10-16T03:31:31;10.45;;;6.40;;
19776;SDS011;10047;42.490;26.012;2022-10-16T03:33:56;12.55;;;7.03;;
19776;SDS011;10047;42.490;26.012;2022-10-16T03:36:22;12.40;;;7.10;;
19776;SDS011;10047;42.490;26.012;2022-10-16T03:38:47;8.82;;;6.88;;
19776;SDS011;10047;42.490;26.012;2022-10-16T03:41:13;10.38;;;7.88;;
19776;SDS011;10047;42.490;26.012;2022-10-16T03:43:38;8.35;;;6.82;;
19776;SDS011;10047;42.490;26.012;2022-10-16T03:46:04;8.85;;;6.80;;
19776;SDS011;10047;42.490;26.012;2022-10-16T03:48:29;9.60;;;6.68;;
19776;SDS011;10047;42.490;26.012;2022-10-16T03:50:55;8.52;;;6.60;;
19776;SDS011;10047;42.490;26.012;2022-10-16T03:53:20;12.73;;;7.47;;
19776;SDS011;10047;42.490;26.012;2022-10-16T03:55:46;9.23;;;6.95;;
19776;SDS011;10047;42.490;26.012;2022-10-16T03:58:11;10.80;;;6.70;;
19776;SDS011;10047;42.490;26.012;2022-10-16T04:00:43;8.60;;;6.65;;
19776;SDS011;10047;42.490;26.012;2022-10-16T04:03:12;10.98;;;6.75;;
19776;SDS011;10047;42.490;26.012;2022-10-16T04:05:38;8.07;;;6.88;;
19776;SDS011;10047;42.490;26.012;2022-10-16T04:08:04;9.18;;;7.28;;
19776;SDS011;10047;42.490;26.012;2022-10-16T04:10:30;9.07;;;6.60;;
19776;SDS011;10047;42.490;26.012;2022-10-16T04:12:55;12.70;;;7.22;;
19776;SDS011;10047;42.490;26.012;2022-10-16T04:15:24;11.77;;;7.13;;
19776;SDS011;10047;42.490;26.012;2022-10-16T04:17:50;10.02;;;7.10;;
19776;SDS011;10047;42.490;26.012;2022-10-16T04:20:16;8.98;;;6.70;;
19776;SDS011;10047;42.490;26.012;2022-10-16T04:22:41;10.02;;;6.75;;
19776;SDS011;10047;42.490;26.012;2022-10-16T04:25:07;11.57;;;6.85;;
19776;SDS011;10047;42.490;26.012;2022-10-16T04:27:32;7.90;;;6.65;;
19776;SDS011;10047;42.490;26.012;2022-10-16T04:29:58;14.00;;;7.95;;
19776;SDS011;10047;42.490;26.012;2022-10-16T04:32:24;10.75;;;7.03;;
19776;SDS011;10047;42.490;26.012;2022-10-16T04:34:51;10.15;;;6.45;;
19776;SDS011;10047;42.490;26.012;2022-10-16T04:37:16;9.25;;;6.25;;
19776;SDS011;10047;42.490;26.012;2022-10-16T04:39:41;6.88;;;6.00;;
19776;SDS011;10047;42.490;26.012;2022-10-16T04:42:07;8.10;;;6.22;;
19776;SDS011;10047;42.490;26.012;2022-10-16T04:44:32;12.68;;;7.75;;
19776;SDS011;10047;42.490;26.012;2022-10-16T04:46:58;14.75;;;8.98;;
19776;SDS011;10047;42.490;26.012;2022-10-16T04:49:23;10.98;;;9.25;;
19776;SDS011;10047;42.490;26.012;2022-10-16T04:51:48;15.13;;;9.90;;
19776;SDS011;10047;42.490;26.012;2022-10-16T04:54:14;14.73;;;9.80;;
19776;SDS011;10047;42.490;26.012;2022-10-16T04:56:39;15.65;;;9.80;;
19776;SDS011;10047;42.490;26.012;2022-10-16T05:01:37;15.80;;;9.95;;
19776;SDS011;10047;42.490;26.012;2022-10-16T05:04:02;14.52;;;8.60;;
19776;SDS011;10047;42.490;26.012;2022-10-16T05:06:27;15.00;;;9.68;;
19776;SDS011;10047;42.490;26.012;2022-10-16T05:08:53;16.95;;;10.40;;
19776;SDS011;10047;42.490;26.012;2022-10-16T05:11:18;20.83;;;13.00;;
19776;SDS011;10047;42.490;26.012;2022-10-16T05:13:44;18.80;;;12.18;;
19776;SDS011;10047;42.490;26.012;2022-10-16T05:16:09;17.58;;;11.48;;
19776;SDS011;10047;42.490;26.012;2022-10-16T05:18:34;15.13;;;10.70;;
19776;SDS011;10047;42.490;26.012;2022-10-16T05:21:00;14.27;;;11.15;;
19776;SDS011;10047;42.490;26.012;2022-10-16T05:23:25;16.95;;;11.07;;
19776;SDS011;10047;42.490;26.012;2022-10-16T05:25:57;15.23;;;10.60;;
19776;SDS011;10047;42.490;26.012;2022-10-16T05:28:24;15.85;;;10.50;;
19776;SDS011;10047;42.490;26.012;2022-10-16T05:30:51;17.10;;;10.95;;
19776;SDS011;10047;42.490;26.012;2022-10-16T05:33:19;20.35;;;11.25;;
19776;SDS011;10047;42.490;26.012;2022-10-16T05:35:45;18.15;;;11.35;;
19776;SDS011;10047;42.490;26.012;2022-10-16T05:38:11;15.88;;;10.38;;
19776;SDS011;10047;42.490;26.012;2022-10-16T05:40:36;18.40;;;11.30;;
19776;SDS011;10047;42.490;26.012;2022-10-16T05:43:02;18.58;;;11.68;;
19776;SDS011;10047;42.490;26.012;2022-10-16T05:45:28;17.40;;;11.50;;
19776;SDS011;10047;42.490;26.012;2022-10-16T05:47:53;17.00;;;11.27;;
19776;SDS011;10047;42.490;26.012;2022-10-16T05:50:19;15.88;;;10.50;;
19776;SDS011;10047;42.490;26.012;2022-10-16T05:52:44;15.75;;;11.40;;
19776;SDS011;10047;42.490;26.012;2022-10-16T05:55:10;14.10;;;9.52;;
19776;SDS011;10047;42.490;26.012;2022-10-16T05:57:35;19.58;;;14.65;;
19776;SDS011;10047;42.490;26.012;2022-10-16T06:00:00;51.92;;;41.13;;
19776;SDS011;10047;42.490;26.012;2022-10-16T06:02:26;37.80;;;30.40;;
19776;SDS011;10047;42.490;26.012;2022-10-16T06:04:52;25.17;;;17.67;;
19776;SDS011;10047;42.490;26.012;2022-10-16T06:07:20;17.35;;;11.52;;
19776;SDS011;10047;42.490;26.012;2022-10-16T06:09:50;24.80;;;10.13;;
19776;SDS011;10047;42.490;26.012;2022-10-16T06:12:15;18.42;;;10.68;;
19776;SDS011;10047;42.490;26.012;2022-10-16T06:14:41;12.77;;;9.55;;
19776;SDS011;10047;42.490;26.012;2022-10-16T06:17:07;13.55;;;9.93;;
19776;SDS011;10047;42.490;26.012;2022-10-16T06:19:32;11.50;;;9.57;;
19776;SDS011;10047;42.490;26.012;2022-10-16T06:21:57;11.82;;;9.45;;
19776;SDS011;10047;42.490;26.012;2022-10-16T06:24:23;13.40;;;9.80;;
19776;SDS011;10047;42.490;26.012;2022-10-16T06:26:49;13.40;;;9.50;;
19776;SDS011;10047;42.490;26.012;2022-10-16T06:29:15;13.57;;;9.80;;
19776;SDS011;10047;42.490;26.012;2022-10-16T06:31:41;11.23;;;10.05;;
19776;SDS011;10047;42.490;26.012;2022-10-16T06:34:08;15.48;;;10.10;;
19776;SDS011;10047;42.490;26.012;2022-10-16T06:36:35;16.55;;;9.98;;
19776;SDS011;10047;42.490;26.012;2022-10-16T06:39:01;13.70;;;9.95;;
19776;SDS011;10047;42.490;26.012;2022-10-16T06:41:27;11.15;;;9.75;;
19776;SDS011;10047;42.490;26.012;2022-10-16T06:43:52;11.65;;;9.80;;
19776;SDS011;10047;42.490;26.012;2022-10-16T06:46:19;15.38;;;11.10;;
19776;SDS011;10047;42.490;26.012;2022-10-16T06:48:46;36.15;;;24.17;;
19776;SDS011;10047;42.490;26.012;2022-10-16T06:51:13;35.22;;;25.30;;
19776;SDS011;10047;42.490;26.012;2022-10-16T06:53:42;14.50;;;11.10;;
19776;SDS011;10047;42.490;26.012;2022-10-16T06:56:10;15.93;;;10.75;;
19776;SDS011;10047;42.490;26.012;2022-10-16T06:58:37;11.93;;;9.85;;
19776;SDS011;10047;42.490;26.012;2022-10-16T07:01:03;13.50;;;10.80;;
19776;SDS011;10047;42.490;26.012;2022-10-16T07:03:29;21.70;;;16.58;;
19776;SDS011;10047;42.490;26.012;2022-10-16T07:05:54;17.05;;;13.52;;
19776;SDS011;10047;42.490;26.012;2022-10-16T07:08:20;12.85;;;10.55;;
19776;SDS011;10047;42.490;26.012;2022-10-16T07:10:46;13.05;;;10.27;;
19776;SDS011;10047;42.490;26.012;2022-10-16T07:13:11;13.00;;;8.90;;
19776;SDS011;10047;42.490;26.012;2022-10-16T07:15:38;11.73;;;8.85;;
19776;SDS011;10047;42.490;26.012;2022-10-16T07:18:04;13.27;;;9.55;;
19776;SDS011;10047;42.490;26.012;2022-10-16T07:20:29;11.88;;;9.23;;
19776;SDS011;10047;42.490;26.012;2022-10-16T07:22:55;13.98;;;9.50;;
19776;SDS011;10047;42.490;26.012;2022-10-16T07:25:20;12.30;;;9.63;;
19776;SDS011;10047;42.490;26.012;2022-10-16T07:27:45;11.02;;;9.00;;
19776;SDS011;10047;42.490;26.012;2022-10-16T07:30:11;11.57;;;8.25;;
19776;SDS011;10047;42.490;26.012;2022-10-16T07:32:36;11.45;;;8.43;;
19776;SDS011;10047;42.490;26.012;2022-10-16T07:35:02;12.45;;;7.30;;
19776;SDS011;10047;42.490;26.012;2022-10-16T07:37:28;9.93;;;5.57;;
19776;SDS011;10047;42.490;26.012;2022-10-16T07:39:53;8.75;;;5.35;;
19776;SDS011;10047;42.490;26.012;2022-10-16T07:42:19;7.60;;;4.95;;
19776;SDS011;10047;42.490;26.012;2022-10-16T07:44:45;10.13;;;5.22;;
19776;SDS011;10047;42.490;26.012;2022-10-16T07:47:10;9.70;;;4.90;;
19776;SDS011;10047;42.490;26.012;2022-10-16T07:49:36;8.75;;;5.10;;
19776;SDS011;10047;42.490;26.012;2022-10-16T07:52:01;7.97;;;5.20;;
19776;SDS011;10047;42.490;26.012;2022-10-16T07:54:27;8.43;;;4.40;;
19776;SDS011;10047;42.490;26.012;2022-10-16T07:56:52;6.07;;;4.32;;
19776;SDS011;10047;42.490;26.012;2022-10-16T07:59:17;9.10;;;4.50;;
19776;SDS011;10047;42.490;26.012;2022-10-16T08:01:43;8.85;;;4.57;;
19776;SDS011;10047;42.490;26.012;2022-10-16T08:04:09;8.13;;;4.38;;
19776;SDS011;10047;42.490;26.012;2022-10-16T08:06:36;7.80;;;4.50;;
19776;SDS011;10047;42.490;26.012;2022-10-16T08:09:03;8.43;;;4.30;;
19776;SDS011;10047;42.490;26.012;2022-10-16T08:11:28;5.30;;;4.07;;
19776;SDS011;10047;42.490;26.012;2022-10-16T08:13:54;6.35;;;3.92;;
19776;SDS011;10047;42.490;26.012;2022-10-16T08:16:19;7.88;;;3.97;;
19776;SDS011;10047;42.490;26.012;2022-10-16T08:18:45;7.15;;;3.95;;
19776;SDS011;10047;42.490;26.012;2022-10-16T08:21:15;7.85;;;4.18;;
19776;SDS011;10047;42.490;26.012;2022-10-16T08:23:41;6.60;;;3.78;;
19776;SDS011;10047;42.490;26.012;2022-10-16T08:26:09;9.00;;;5.30;;
19776;SDS011;10047;42.490;26.012;2022-10-16T08:28:35;28.70;;;20.85;;
19776;SDS011;10047;42.490;26.012;2022-10-16T08:33:37;8.70;;;4.80;;
19776;SDS011;10047;42.490;26.012;2022-10-16T08:36:04;8.70;;;4.78;;
19776;SDS011;10047;42.490;26.012;2022-10-16T08:38:30;9.05;;;5.03;;
19776;SDS011;10047;42.490;26.012;2022-10-16T08:49:43;5.85;;;3.55;;
19776;SDS011;10047;42.490;26.012;2022-10-16T08:52:25;6.53;;;3.53;;
19776;SDS011;10047;42.490;26.012;2022-10-16T08:54:57;6.53;;;4.05;;
19776;SDS011;10047;42.490;26.012;2022-10-16T08:57:24;7.75;;;4.03;;
19776;SDS011;10047;42.490;26.012;2022-10-16T08:59:52;8.13;;;4.85;;
19776;SDS011;10047;42.490;26.012;2022-10-16T09:07:58;7.32;;;3.72;;
19776;SDS011;10047;42.490;26.012;2022-10-16T09:16:40;6.20;;;4.40;;
19776;SDS011;10047;42.490;26.012;2022-10-16T09:19:19;4.35;;;3.55;;
19776;SDS011;10047;42.490;26.012;2022-10-16T09:21:51;6.85;;;4.03;;
19776;SDS011;10047;42.490;26.012;2022-10-16T09:24:19;8.50;;;4.10;;
19776;SDS011;10047;42.490;26.012;2022-10-16T09:26:46;6.75;;;3.58;;
19776;SDS011;10047;42.490;26.012;2022-10-16T09:29:13;7.30;;;4.47;;
19776;SDS011;10047;42.490;26.012;2022-10-16T09:31:39;6.68;;;3.72;;
19776;SDS011;10047;42.490;26.012;2022-10-16T09:34:06;8.15;;;3.97;;
19776;SDS011;10047;42.490;26.012;2022-10-16T09:36:50;6.60;;;3.05;;
19776;SDS011;10047;42.490;26.012;2022-10-16T09:39:16;7.22;;;3.70;;
19776;SDS011;10047;42.490;26.012;2022-10-16T09:41:42;7.50;;;3.60;;
19776;SDS011;10047;42.490;26.012;2022-10-16T09:44:29;5.68;;;3.28;;
19776;SDS011;10047;42.490;26.012;2022-10-16T09:47:02;6.07;;;3.65;;
19776;SDS011;10047;42.490;26.012;2022-10-16T09:49:30;6.47;;;3.58;;
19776;SDS011;10047;42.490;26.012;2022-10-16T09:52:29;6.55;;;3.80;;
19776;SDS011;10047;42.490;26.012;2022-10-16T09:57:17;6.00;;;3.47;;
19776;SDS011;10047;42.490;26.012;2022-10-16T09:59:47;6.72;;;3.20;;
19776;SDS011;10047;42.490;26.012;2022-10-16T10:02:14;8.43;;;3.17;;
19776;SDS011;10047;42.490;26.012;2022-10-16T10:04:43;5.88;;;3.10;;
19776;SDS011;10047;42.490;26.012;2022-10-16T10:07:18;7.25;;;4.15;;
19776;SDS011;10047;42.490;26.012;2022-10-16T10:09:50;4.88;;;3.60;;
19776;SDS011;10047;42.490;26.012;2022-10-16T10:12:28;8.45;;;4.22;;
19776;SDS011;10047;42.490;26.012;2022-10-16T10:17:24;8.50;;;4.72;;
19776;SDS011;10047;42.490;26.012;2022-10-16T10:19:54;6.35;;;3.70;;
19776;SDS011;10047;42.490;26.012;2022-10-16T10:22:32;7.05;;;3.70;;
19776;SDS011;10047;42.490;26.012;2022-10-16T10:35:22;6.32;;;3.40;;
19776;SDS011;10047;42.490;26.012;2022-10-16T10:38:06;6.85;;;3.60;;
19776;SDS011;10047;42.490;26.012;2022-10-16T10:46:34;6.55;;;3.55;;
19776;SDS011;10047;42.490;26.012;2022-10-16T10:54:50;6.60;;;3.28;;
19776;SDS011;10047;42.490;26.012;2022-10-16T11:05:46;7.55;;;3.38;;
19776;SDS011;10047;42.490;26.012;2022-10-16T11:08:19;7.43;;;4.82;;
19776;SDS011;10047;42.490;26.012;2022-10-16T11:10:58;8.82;;;4.60;;
19776;SDS011;10047;42.490;26.012;2022-10-16T11:15:53;6.05;;;4.00;;
19776;SDS011;10047;42.490;26.012;2022-10-16T11:18:30;5.90;;;3.93;;
19776;SDS011;10047;42.490;26.012;2022-10-16T11:21:10;6.60;;;4.10;;
19776;SDS011;10047;42.490;26.012;2022-10-16T11:23:48;5.55;;;3.90;;
19776;SDS011;10047;42.490;26.012;2022-10-16T11:26:27;6.88;;;3.90;;
19776;SDS011;10047;42.490;26.012;2022-10-16T11:28:56;5.80;;;3.88;;
19776;SDS011;10047;42.490;26.012;2022-10-16T11:36:39;8.50;;;3.20;;
19776;SDS011;10047;42.490;26.012;2022-10-16T11:49:30;7.22;;;3.53;;
19776;SDS011;10047;42.490;26.012;2022-10-16T11:54:47;4.50;;;3.33;;
19776;SDS011;10047;42.490;26.012;2022-10-16T11:57:29;6.70;;;3.60;;
19776;SDS011;10047;42.490;26.012;2022-10-16T12:00:01;6.18;;;3.22;;
19776;SDS011;10047;42.490;26.012;2022-10-16T12:05:32;5.60;;;3.40;;
19776;SDS011;10047;42.490;26.012;2022-10-16T12:08:15;7.38;;;3.20;;
19776;SDS011;10047;42.490;26.012;2022-10-16T12:10:43;6.55;;;3.00;;
19776;SDS011;10047;42.490;26.012;2022-10-16T12:18:41;5.50;;;3.25;;
19776;SDS011;10047;42.490;26.012;2022-10-16T12:21:08;5.72;;;3.20;;
19776;SDS011;10047;42.490;26.012;2022-10-16T12:23:54;5.80;;;3.20;;
19776;SDS011;10047;42.490;26.012;2022-10-16T12:26:26;7.75;;;2.85;;
19776;SDS011;10047;42.490;26.012;2022-10-16T12:31:20;6.00;;;3.25;;
19776;SDS011;10047;42.490;26.012;2022-10-16T12:34:00;5.00;;;2.90;;
19776;SDS011;10047;42.490;26.012;2022-10-16T12:36:31;4.53;;;3.00;;
19776;SDS011;10047;42.490;26.012;2022-10-16T12:38:59;6.65;;;3.45;;
19776;SDS011;10047;42.490;26.012;2022-10-16T12:43:56;4.63;;;2.85;;
19776;SDS011;10047;42.490;26.012;2022-10-16T12:46:23;5.90;;;3.17;;
19776;SDS011;10047;42.490;26.012;2022-10-16T12:51:37;6.20;;;2.97;;
19776;SDS011;10047;42.490;26.012;2022-10-16T12:54:13;4.55;;;2.92;;
19776;SDS011;10047;42.490;26.012;2022-10-16T12:56:43;5.15;;;3.10;;
19776;SDS011;10047;42.490;26.012;2022-10-16T12:59:29;6.57;;;3.05;;
19776;SDS011;10047;42.490;26.012;2022-10-16T13:07:48;4.82;;;3.40;;
19776;SDS011;10047;42.490;26.012;2022-10-16T13:15:34;7.57;;;2.85;;
19776;SDS011;10047;42.490;26.012;2022-10-16T13:26:38;6.93;;;3.20;;
19776;SDS011;10047;42.490;26.012;2022-10-16T13:29:11;6.93;;;2.75;;
19776;SDS011;10047;42.490;26.012;2022-10-16T13:31:38;4.38;;;2.90;;
19776;SDS011;10047;42.490;26.012;2022-10-16T13:34:04;5.78;;;2.78;;
19776;SDS011;10047;42.490;26.012;2022-10-16T13:36:35;4.10;;;2.80;;
19776;SDS011;10047;42.490;26.012;2022-10-16T13:39:19;6.93;;;2.97;;
19776;SDS011;10047;42.490;26.012;2022-10-16T13:44:49;8.10;;;2.70;;
19776;SDS011;10047;42.490;26.012;2022-10-16T13:47:17;5.32;;;2.90;;
19776;SDS011;10047;42.490;26.012;2022-10-16T13:52:24;5.72;;;3.05;;
19776;SDS011;10047;42.490;26.012;2022-10-16T13:54:49;4.60;;;2.70;;
19776;SDS011;10047;42.490;26.012;2022-10-16T13:57:16;4.55;;;2.78;;
19776;SDS011;10047;42.490;26.012;2022-10-16T13:59:42;5.20;;;2.60;;
19776;SDS011;10047;42.490;26.012;2022-10-16T14:02:14;8.40;;;3.00;;
19776;SDS011;10047;42.490;26.012;2022-10-16T14:04:45;5.00;;;2.47;;
19776;SDS011;10047;42.490;26.012;2022-10-16T14:07:14;6.72;;;2.78;;
19776;SDS011;10047;42.490;26.012;2022-10-16T14:09:47;4.95;;;2.50;;
19776;SDS011;10047;42.490;26.012;2022-10-16T14:12:15;6.32;;;2.95;;
19776;SDS011;10047;42.490;26.012;2022-10-16T14:14:41;4.53;;;2.70;;
19776;SDS011;10047;42.490;26.012;2022-10-16T14:17:16;6.88;;;2.70;;
19776;SDS011;10047;42.490;26.012;2022-10-16T14:19:48;6.07;;;3.00;;
19776;SDS011;10047;42.490;26.012;2022-10-16T14:24:49;3.97;;;2.83;;
19776;SDS011;10047;42.490;26.012;2022-10-16T14:27:32;4.95;;;2.65;;
19776;SDS011;10047;42.490;26.012;2022-10-16T14:32:33;4.22;;;2.85;;
19776;SDS011;10047;42.490;26.012;2022-10-16T14:34:59;3.85;;;3.20;;
19776;SDS011;10047;42.490;26.012;2022-10-16T14:37:26;6.65;;;2.75;;
19776;SDS011;10047;42.490;26.012;2022-10-16T14:39:54;5.85;;;2.58;;
19776;SDS011;10047;42.490;26.012;2022-10-16T14:42:21;6.30;;;3.03;;
19776;SDS011;10047;42.490;26.012;2022-10-16T14:44:51;5.30;;;2.50;;
19776;SDS011;10047;42.490;26.012;2022-10-16T14:47:18;7.70;;;3.00;;
19776;SDS011;10047;42.490;26.012;2022-10-16T14:49:49;8.80;;;2.78;;
19776;SDS011;10047;42.490;26.012;2022-10-16T14:52:15;5.20;;;2.90;;
19776;SDS011;10047;42.490;26.012;2022-10-16T14:54:40;5.97;;;2.80;;
19776;SDS011;10047;42.490;26.012;2022-10-16T14:57:12;8.23;;;2.92;;
19776;SDS011;10047;42.490;26.012;2022-10-16T14:59:43;8.80;;;3.17;;
19776;SDS011;10047;42.490;26.012;2022-10-16T15:02:25;8.65;;;3.10;;
19776;SDS011;10047;42.490;26.012;2022-10-16T15:05:04;5.57;;;2.95;;
19776;SDS011;10047;42.490;26.012;2022-10-16T15:07:41;7.18;;;3.45;;
19776;SDS011;10047;42.490;26.012;2022-10-16T15:10:07;7.10;;;3.03;;
19776;SDS011;10047;42.490;26.012;2022-10-16T15:12:32;4.88;;;3.25;;
19776;SDS011;10047;42.490;26.012;2022-10-16T15:14:58;3.65;;;2.80;;
19776;SDS011;10047;42.490;26.012;2022-10-16T15:17:23;7.45;;;2.78;;
19776;SDS011;10047;42.490;26.012;2022-10-16T15:19:49;6.93;;;2.58;;
19776;SDS011;10047;42.490;26.012;2022-10-16T15:22:16;8.18;;;3.05;;
19776;SDS011;10047;42.490;26.012;2022-10-16T15:24:42;6.90;;;3.40;;
19776;SDS011;10047;42.490;26.012;2022-10-16T15:27:07;5.80;;;3.45;;
19776;SDS011;10047;42.490;26.012;2022-10-16T15:29:33;6.75;;;3.10;;
19776;SDS011;10047;42.490;26.012;2022-10-16T15:31:58;7.32;;;3.00;;
19776;SDS011;10047;42.490;26.012;2022-10-16T15:34:24;4.32;;;2.95;;
19776;SDS011;10047;42.490;26.012;2022-10-16T15:36:49;5.72;;;3.33;;
19776;SDS011;10047;42.490;26.012;2022-10-16T15:39:16;5.63;;;2.80;;
19776;SDS011;10047;42.490;26.012;2022-10-16T15:41:44;6.07;;;3.03;;
19776;SDS011;10047;42.490;26.012;2022-10-16T15:44:12;8.55;;;3.60;;
19776;SDS011;10047;42.490;26.012;2022-10-16T15:46:38;5.82;;;3.20;;
19776;SDS011;10047;42.490;26.012;2022-10-16T15:49:03;7.75;;;3.20;;
19776;SDS011;10047;42.490;26.012;2022-10-16T15:51:29;5.75;;;3.15;;
19776;SDS011;10047;42.490;26.012;2022-10-16T15:53:57;8.52;;;2.70;;
19776;SDS011;10047;42.490;26.012;2022-10-16T15:56:26;5.35;;;3.00;;
19776;SDS011;10047;42.490;26.012;2022-10-16T15:58:53;5.85;;;2.70;;
19776;SDS011;10047;42.490;26.012;2022-10-16T16:01:19;9.18;;;2.90;;
19776;SDS011;10047;42.490;26.012;2022-10-16T16:03:45;6.20;;;3.30;;
19776;SDS011;10047;42.490;26.012;2022-10-16T16:06:11;4.40;;;2.90;;
19776;SDS011;10047;42.490;26.012;2022-10-16T16:08:38;7.07;;;2.92;;
19776;SDS011;10047;42.490;26.012;2022-10-16T16:13:31;10.02;;;3.15;;
19776;SDS011;10047;42.490;26.012;2022-10-16T16:15:57;8.18;;;3.28;;
19776;SDS011;10047;42.490;26.012;2022-10-16T16:18:22;11.25;;;3.30;;
19776;SDS011;10047;42.490;26.012;2022-10-16T16:20:49;13.30;;;3.55;;
19776;SDS011;10047;42.490;26.012;2022-10-16T16:23:15;14.95;;;3.88;;
19776;SDS011;10047;42.490;26.012;2022-10-16T16:25:40;10.20;;;3.58;;
19776;SDS011;10047;42.490;26.012;2022-10-16T16:28:06;9.75;;;3.90;;
19776;SDS011;10047;42.490;26.012;2022-10-16T16:30:32;8.30;;;3.63;;
19776;SDS011;10047;42.490;26.012;2022-10-16T16:32:57;7.57;;;3.25;;
19776;SDS011;10047;42.490;26.012;2022-10-16T16:35:23;6.93;;;3.58;;
19776;SDS011;10047;42.490;26.012;2022-10-16T16:37:48;7.57;;;4.10;;
19776;SDS011;10047;42.490;26.012;2022-10-16T16:40:13;9.85;;;4.57;;
19776;SDS011;10047;42.490;26.012;2022-10-16T16:42:39;8.90;;;4.65;;
19776;SDS011;10047;42.490;26.012;2022-10-16T16:45:04;9.27;;;4.45;;
19776;SDS011;10047;42.490;26.012;2022-10-16T16:47:30;8.32;;;4.00;;
19776;SDS011;10047;42.490;26.012;2022-10-16T16:49:56;11.13;;;3.70;;
19776;SDS011;10047;42.490;26.012;2022-10-16T16:52:21;5.13;;;3.20;;
19776;SDS011;10047;42.490;26.012;2022-10-16T16:54:47;6.95;;;3.28;;
19776;SDS011;10047;42.490;26.012;2022-10-16T16:57:17;5.40;;;3.42;;
19776;SDS011;10047;42.490;26.012;2022-10-16T16:59:45;7.05;;;3.10;;
19776;SDS011;10047;42.490;26.012;2022-10-16T17:02:11;6.25;;;3.00;;
19776;SDS011;10047;42.490;26.012;2022-10-16T17:04:36;4.88;;;3.35;;
19776;SDS011;10047;42.490;26.012;2022-10-16T17:07:02;4.38;;;3.40;;